Time;durP1;ratioP1;P1;durP2;ratioP2;P2;SDS_P1;SDS_P2;PMS_P1;PMS_P2;Temp;Humidity;BMP_temperature;BMP_pressure;BME280_temperature;BME280_humidity;BME280_pressure;Samples;Min_cycle;Max_cycle;Signal;HPM_P1;HPM_P2
2023/07/14 00:00:39;;;;;;;;;;;;;;;;;;5014292;28;20016;-66
2023/07/14 00:03:05;;;;;;;;;;;;;;;;;;5014306;28;20469;-65
2023/07/14 00:05:32;;;;;;;;;;;;;;;;;;5014130;28;19921;-65
2023/07/14 00:07:57;;;;;;;;;;;;;;;;;;5014086;28;19957;-65
2023/07/14 00:10:23;;;;;;;;;;;;;;;;;;5012989;28;20280;-65
2023/07/14 00:12:49;;;;;;;;;;;;;;;;;;5014073;28;19922;-64
2023/07/14 00:15:15;;;;;;;;;;;;;;;;;;5014061;28;19925;-66
2023/07/14 00:17:41;;;;;;;;;;;;;;;;;;5014125;28;19929;-65
2023/07/14 00:20:08;;;;;;;;;;;;;;;;;;5013979;28;19928;-65
2023/07/14 00:22:36;;;;;;;;;;;;;;;;;;5013738;28;19922;-65
2023/07/14 00:25:04;;;;;;;;;;;;;;;;;;5012770;28;20489;-65
2023/07/14 00:27:30;;;;;;;;;;;;;;;;;;5012867;28;19929;-65
2023/07/14 00:29:57;;;;;;;;;;;;;;;;;;5013696;28;19921;-64
2023/07/14 00:32:23;;;;;;;;;;;;;;;;;;5013586;28;20425;-65
2023/07/14 00:34:49;;;;;;;;;;;;;;;;;;5013436;28;19929;-65
2023/07/14 00:37:15;;;;;;;;;;;;;;;;;;5013445;28;20350;-65
2023/07/14 00:39:41;;;;;;;;;;;;;;;;;;5013466;28;20011;-65
2023/07/14 00:42:07;;;;;;;;;;;;;;;;;;5013391;28;20403;-65
2023/07/14 00:44:33;;;;;;;;;;;;;;;;;;5013472;28;19956;-65
2023/07/14 00:46:59;;;;;;;;;;;;;;;;;;5013428;28;20418;-64
2023/07/14 00:49:25;;;;;;;;;;;;;;;;;;5013542;28;19969;-65
2023/07/14 00:51:51;;;;;;;;;;;;;;;;;;5013413;28;19925;-65
2023/07/14 00:54:17;;;;;;;;;;;;;;;;;;5013623;28;19956;-65
2023/07/14 00:56:43;;;;;;;;;;;;;;;;;;5013399;28;20371;-65
2023/07/14 00:59:09;;;;;;;;;;;;;;;;;;5013327;28;20447;-64
2023/07/14 01:01:35;;;;;;;;;;;;;;;;;;5013222;28;19932;-65
2023/07/14 01:04:02;;;;;;;;;;;;;;;;;;5013267;28;19921;-65
2023/07/14 01:06:29;;;;;;;;;;;;;;;;;;5013072;28;19932;-65
2023/07/14 01:08:55;;;;;;;;;;;;;;;;;;5013406;28;19922;-65
2023/07/14 01:11:21;;;;;;;;;;;;;;;;;;5011780;28;19948;-64
2023/07/14 01:13:47;;;;;;;;;;;;;;;;;;5013030;28;20286;-64
2023/07/14 01:16:14;;;;;;;;;;;;;;;;;;5012850;28;20478;-64
2023/07/14 01:18:40;;;;;;;;;;;;;;;;;;5012996;28;19932;-64
2023/07/14 01:21:06;;;;;;;;;;;;;;;;;;5012537;28;20016;-64
2023/07/14 01:23:32;;;;;;;;;;;;;;;;;;5012950;28;19926;-64
2023/07/14 01:25:58;;;;;;;;;;;;;;;;;;5012854;28;19932;-64
2023/07/14 01:28:24;;;;;;;;;;;;;;;;;;5011582;28;19976;-65
2023/07/14 01:30:50;;;;;;;;;;;;;;;;;;5012712;28;19922;-65
2023/07/14 01:33:16;;;;;;;;;;;;;;;;;;5012568;28;19928;-64
2023/07/14 01:35:42;;;;;;;;;;;;;;;;;;5012470;28;20024;-65
2023/07/14 01:38:09;;;;;;;;;;;;;;;;;;5012816;28;20015;-64
2023/07/14 01:40:36;;;;;;;;;;;;;;;;;;5011971;28;19925;-64
2023/07/14 01:43:01;;;;;;;;;;;;;;;;;;5011828;28;19922;-64
2023/07/14 01:45:27;;;;;;;;;;;;;;;;;;5010823;28;19968;-64
2023/07/14 01:47:53;;;;;;;;;;;;;;;;;;5011937;28;19987;-64
2023/07/14 01:50:19;;;;;;;;;;;;;;;;;;5011473;28;19957;-65
2023/07/14 01:52:46;;;;;;;;;;;;;;;;;;5011374;28;20436;-65
2023/07/14 01:55:12;;;;;;;;;;;;;;;;;;5011389;28;19925;-64
2023/07/14 01:57:38;;;;;;;;;;;;;;;;;;5011253;28;20455;-65
2023/07/14 02:00:04;;;;;;;;;;;;;;;;;;5011402;28;19922;-64
2023/07/14 02:02:30;;;;;;;;;;;;;;;;;;5011305;28;19922;-64
2023/07/14 02:04:56;;;;;;;;;;;;;;;;;;5011425;28;19925;-64
2023/07/14 02:07:22;;;;;;;;;;;;;;;;;;5011618;28;19921;-64
2023/07/14 02:09:48;;;;;;;;;;;;;;;;;;5012052;28;19976;-64
2023/07/14 02:12:14;;;;;;;;;;;;;;;;;;5012007;28;19926;-65
2023/07/14 02:14:40;;;;;;;;;;;;;;;;;;5012100;28;19948;-65
2023/07/14 02:17:06;;;;;;;;;;;;;;;;;;5010645;28;19925;-65
2023/07/14 02:19:32;;;;;;;;;;;;;;;;;;5013984;28;19929;-65
2023/07/14 02:21:58;;;;;;;;;;;;;;;;;;5018529;28;19927;-64
2023/07/14 02:24:23;;;;;;;;;;;;;;;;;;5018549;28;19955;-64
2023/07/14 02:26:49;;;;;;;;;;;;;;;;;;5018263;28;20019;-64
2023/07/14 02:29:15;;;;;;;;;;;;;;;;;;5018256;28;19967;-64
2023/07/14 02:31:41;;;;;;;;;;;;;;;;;;5018069;28;19965;-66
2023/07/14 02:34:08;;;;;;;;;;;;;;;;;;5018345;28;19926;-65
2023/07/14 02:36:34;;;;;;;;;;;;;;;;;;5018266;28;20327;-66
2023/07/14 02:39:01;;;;;;;;;;;;;;;;;;5018424;28;19929;-66
2023/07/14 02:41:27;;;;;;;;;;;;;;;;;;5018470;28;19921;-66
2023/07/14 02:43:54;;;;;;;;;;;;;;;;;;5017037;28;19936;-65
2023/07/14 02:46:19;;;;;;;;;;;;;;;;;;5018305;28;19928;-66
2023/07/14 02:48:45;;;;;;;;;;;;;;;;;;5018408;28;19921;-66
2023/07/14 02:51:11;;;;;;;;;;;;;;;;;;5018543;28;19922;-64
2023/07/14 02:53:37;;;;;;;;;;;;;;;;;;5016977;28;19925;-66
2023/07/14 02:56:03;;;;;;;;;;;;;;;;;;5018521;28;19960;-65
2023/07/14 02:58:29;;;;;;;;;;;;;;;;;;5018290;28;19925;-65
2023/07/14 03:00:55;;;;;;;;;;;;;;;;;;5018146;28;19930;-64
2023/07/14 03:03:21;;;;;;;;;;;;;;;;;;5017071;28;20024;-64
2023/07/14 03:05:47;;;;;;;;;;;;;;;;;;5018394;28;19922;-64
2023/07/14 03:08:16;;;;;;;;;;;;;;;;;;5018199;28;19926;-65
2023/07/14 03:10:42;;;;;;;;;;;;;;;;;;5018327;28;19925;-64
2023/07/14 03:13:08;;;;;;;;;;;;;;;;;;5018151;28;19999;-64
2023/07/14 03:15:34;;;;;;;;;;;;;;;;;;5018017;28;19928;-64
2023/07/14 03:18:00;;;;;;;;;;;;;;;;;;5017938;28;19926;-66
2023/07/14 03:20:26;;;;;;;;;;;;;;;;;;5018197;28;19969;-64
2023/07/14 03:22:52;;;;;;;;;;;;;;;;;;5017840;28;19958;-65
2023/07/14 03:25:18;;;;;;;;;;;;;;;;;;5018141;28;19925;-64
2023/07/14 03:27:45;;;;;;;;;;;;;;;;;;5018060;28;19925;-64
2023/07/14 03:30:11;;;;;;;;;;;;;;;;;;5016489;28;19922;-64
2023/07/14 03:32:37;;;;;;;;;;;;;;;;;;5013542;28;19925;-65
2023/07/14 03:35:03;;;;;;;;;;;;;;;;;;5014511;28;19936;-64
2023/07/14 03:37:29;;;;;;;;;;;;;;;;;;5014376;28;19929;-64
2023/07/14 03:39:55;;;;;;;;;;;;;;;;;;5014058;28;19922;-64
2023/07/14 03:42:21;;;;;;;;;;;;;;;;;;5013753;28;19925;-64
2023/07/14 03:44:47;;;;;;;;;;;;;;;;;;5013996;28;19940;-64
2023/07/14 03:47:13;;;;;;;;;;;;;;;;;;5014798;28;20087;-65
2023/07/14 03:49:39;;;;;;;;;;;;;;;;;;5014563;28;19921;-64
2023/07/14 03:52:05;;;;;;;;;;;;;;;;;;5014574;28;19944;-65
2023/07/14 03:54:30;;;;;;;;;;;;;;;;;;5014321;28;20355;-64
2023/07/14 03:56:58;;;;;;;;;;;;;;;;;;5014420;28;19932;-64
2023/07/14 03:59:24;;;;;;;;;;;;;;;;;;5014249;28;19929;-64
2023/07/14 04:01:50;;;;;;;;;;;;;;;;;;5014527;28;19922;-65
2023/07/14 04:04:16;;;;;;;;;;;;;;;;;;5014218;28;20331;-64
2023/07/14 04:06:42;;;;;;;;;;;;;;;;;;5013087;28;19931;-65
2023/07/14 04:09:08;;;;;;;;;;;;;;;;;;5014042;28;19922;-64
2023/07/14 04:11:34;;;;;;;;;;;;;;;;;;5014097;28;19943;-64
2023/07/14 04:14:00;;;;;;;;;;;;;;;;;;5013824;28;19925;-64
2023/07/14 04:16:26;;;;;;;;;;;;;;;;;;5014181;28;19933;-64
2023/07/14 04:18:52;;;;;;;;;;;;;;;;;;5014052;28;20024;-65
2023/07/14 04:21:24;;;;;;;;;;;;;;;;;;5013982;28;20025;-64
2023/07/14 04:23:49;;;;;;;;;;;;;;;;;;5013960;28;19933;-66
2023/07/14 04:26:15;;;;;;;;;;;;;;;;;;5013749;28;19925;-65
2023/07/14 04:28:41;;;;;;;;;;;;;;;;;;5013598;28;19928;-66
2023/07/14 04:31:07;;;;;;;;;;;;;;;;;;5013513;28;19944;-66
2023/07/14 04:33:33;;;;;;;;;;;;;;;;;;5013187;28;20717;-65
2023/07/14 04:35:59;;;;;;;;;;;;;;;;;;5013179;28;19930;-66
2023/07/14 04:38:25;;;;;;;;;;;;;;;;;;5012254;28;19930;-65
2023/07/14 04:40:51;;;;;;;;;;;;;;;;;;5013568;28;20283;-65
2023/07/14 04:43:17;;;;;;;;;;;;;;;;;;5013461;28;19921;-65
2023/07/14 04:45:43;;;;;;;;;;;;;;;;;;5013561;28;20450;-65
2023/07/14 04:48:09;;;;;;;;;;;;;;;;;;5013688;28;20021;-65
2023/07/14 04:50:35;;;;;;;;;;;;;;;;;;5013460;28;19944;-64
2023/07/14 04:53:05;;;;;;;;;;;;;;;;;;5013522;28;19964;-65
2023/07/14 04:55:31;;;;;;;;;;;;;;;;;;5013273;28;19922;-65
2023/07/14 04:57:57;;;;;;;;;;;;;;;;;;5012128;28;20454;-65
2023/07/14 05:00:23;;;;;;;;;;;;;;;;;;5013422;28;19971;-65
2023/07/14 05:02:49;;;;;;;;;;;;;;;;;;5013298;28;19972;-65
2023/07/14 05:05:15;;;;;;;;;;;;;;;;;;5011947;28;19960;-65
2023/07/14 05:07:41;;;;;;;;;;;;;;;;;;5013294;28;19991;-65
2023/07/14 05:10:06;;;;;;;;;;;;;;;;;;5013127;28;19929;-66
2023/07/14 05:12:32;;;;;;;;;;;;;;;;;;5013363;28;19926;-65
2023/07/14 05:14:58;;;;;;;;;;;;;;;;;;5011787;28;19952;-65
2023/07/14 05:17:24;;;;;;;;;;;;;;;;;;5011921;28;19951;-65
2023/07/14 05:19:50;;;;;;;;;;;;;;;;;;5012998;28;20371;-65
2023/07/14 05:22:16;;;;;;;;;;;;;;;;;;5011537;28;19922;-65
2023/07/14 05:24:42;;;;;;;;;;;;;;;;;;5012821;28;19925;-65
2023/07/14 05:27:08;;;;;;;;;;;;;;;;;;5013052;28;19932;-65
2023/07/14 05:29:34;;;;;;;;;;;;;;;;;;5012905;28;19936;-65
2023/07/14 05:32:00;;;;;;;;;;;;;;;;;;5012901;28;20275;-65
2023/07/14 05:34:26;;;;;;;;;;;;;;;;;;5012711;28;19975;-65
2023/07/14 05:36:51;;;;;;;;;;;;;;;;;;5009101;28;20549;-65
2023/07/14 05:39:17;;;;;;;;;;;;;;;;;;5012477;28;19992;-65
2023/07/14 05:41:43;;;;;;;;;;;;;;;;;;5012701;28;20012;-65
2023/07/14 05:44:09;;;;;;;;;;;;;;;;;;5012717;28;20012;-65
2023/07/14 05:46:35;;;;;;;;;;;;;;;;;;5012465;28;20056;-65
2023/07/14 05:49:01;;;;;;;;;;;;;;;;;;5012679;28;20016;-65
2023/07/14 05:51:27;;;;;;;;;;;;;;;;;;5012380;28;20012;-65
2023/07/14 05:53:53;;;;;;;;;;;;;;;;;;5011933;28;19925;-65
2023/07/14 05:56:19;;;;;;;;;;;;;;;;;;5012174;28;20021;-65
2023/07/14 05:58:45;;;;;;;;;;;;;;;;;;5011327;28;19925;-65
2023/07/14 06:01:11;;;;;;;;;;;;;;;;;;5010923;28;20372;-65
2023/07/14 06:03:37;;;;;;;;;;;;;;;;;;5012332;28;19928;-65
2023/07/14 06:06:02;;;;;;;;;;;;;;;;;;5010774;28;19925;-65
2023/07/14 06:08:28;;;;;;;;;;;;;;;;;;5012137;28;19925;-67
2023/07/14 06:10:54;;;;;;;;;;;;;;;;;;5012281;28;19921;-65
2023/07/14 06:13:20;;;;;;;;;;;;;;;;;;5012219;28;20360;-65
2023/07/14 06:15:48;;;;;;;;;;;;;;;;;;5012170;28;19932;-66
2023/07/14 06:18:14;;;;;;;;;;;;;;;;;;5012179;28;19929;-66
2023/07/14 06:20:39;;;;;;;;;;;;;;;;;;5011963;28;20366;-66
2023/07/14 06:23:05;;;;;;;;;;;;;;;;;;5011967;28;20000;-67
2023/07/14 06:25:31;;;;;;;;;;;;;;;;;;5011611;28;20016;-67
2023/07/14 06:27:57;;;;;;;;;;;;;;;;;;5010379;28;19921;-66
2023/07/14 06:30:25;;;;;;;;;;;;;;;;;;5011741;28;19936;-67
2023/07/14 06:32:51;;;;;;;;;;;;;;;;;;5011539;28;19921;-66
2023/07/14 06:35:17;;;;;;;;;;;;;;;;;;5011175;28;20355;-66
2023/07/14 06:37:43;;;;;;;;;;;;;;;;;;5010912;28;19980;-66
2023/07/14 06:40:09;;;;;;;;;;;;;;;;;;5011441;28;19968;-66
2023/07/14 06:42:35;;;;;;;;;;;;;;;;;;5011907;28;19932;-66
2023/07/14 06:45:03;;;;;;;;;;;;;;;;;;5011800;28;19925;-66
2023/07/14 06:47:29;;;;;;;;;;;;;;;;;;5011785;28;19929;-66
2023/07/14 06:49:56;;;;;;;;;;;;;;;;;;5011788;28;19929;-66
2023/07/14 06:52:22;;;;;;;;;;;;;;;;;;5011954;28;19985;-66
2023/07/14 06:54:48;;;;;;;;;;;;;;;;;;5011939;28;19957;-67
2023/07/14 06:57:14;;;;;;;;;;;;;;;;;;5011845;28;20038;-66
2023/07/14 06:59:39;;;;;;;;;;;;;;;;;;5011654;28;19928;-66
2023/07/14 07:02:05;;;;;;;;;;;;;;;;;;5011580;28;19925;-66
2023/07/14 07:04:32;;;;;;;;;;;;;;;;;;5011636;28;19922;-66
2023/07/14 07:06:58;;;;;;;;;;;;;;;;;;5014447;28;19971;-66
2023/07/14 07:09:24;;;;;;;;;;;;;;;;;;5015482;28;20015;-66
2023/07/14 07:11:50;;;;;;;;;;;;;;;;;;5015274;28;20409;-66
2023/07/14 07:14:16;;;;;;;;;;;;;;;;;;5015215;28;19988;-66
2023/07/14 07:16:42;;;;;;;;;;;;;;;;;;5015195;28;19926;-66
2023/07/14 07:19:08;;;;;;;;;;;;;;;;;;5015218;28;19932;-66
2023/07/14 07:21:34;;;;;;;;;;;;;;;;;;5015017;28;19951;-66
2023/07/14 07:24:00;;;;;;;;;;;;;;;;;;5015295;28;20386;-66
2023/07/14 07:26:25;;;;;;;;;;;;;;;;;;5014994;28;19922;-66
2023/07/14 07:28:51;;;;;;;;;;;;;;;;;;5015066;28;19925;-66
2023/07/14 07:31:18;;;;;;;;;;;;;;;;;;5014881;28;20413;-66
2023/07/14 07:33:44;;;;;;;;;;;;;;;;;;5013433;28;20007;-66
2023/07/14 07:36:16;;;;;;;;;;;;;;;;;;5021773;22;19929;-65
2023/07/14 07:38:41;;;;;;;;;;;;;;;;;;4996603;28;20495;-66
2023/07/14 07:41:07;;;;;;;;;;;;;;;;;;4995755;28;19921;-66
2023/07/14 07:43:33;;;;;;;;;;;;;;;;;;4995177;28;19925;-66
2023/07/14 07:45:59;;;;;;;;;;;;;;;;;;4995604;28;19926;-66
2023/07/14 07:48:25;;;;;;;;;;;;;;;;;;4995033;28;19968;-66
2023/07/14 07:50:51;;;;;;;;;;;;;;;;;;4995353;28;19957;-66
2023/07/14 07:53:17;;;;;;;;;;;;;;;;;;4995623;28;20035;-66
2023/07/14 07:55:43;;;;;;;;;;;;;;;;;;4994882;28;20402;-67
2023/07/14 07:58:09;;;;;;;;;;;;;;;;;;4994838;28;19964;-66
2023/07/14 08:00:36;;;;;;;;;;;;;;;;;;4993522;28;20008;-66
2023/07/14 08:03:01;;;;;;;;;;;;;;;;;;4994781;28;19926;-66
2023/07/14 08:05:27;;;;;;;;;;;;;;;;;;4993896;28;19922;-66
2023/07/14 08:07:53;;;;;;;;;;;;;;;;;;4994897;28;19921;-66
2023/07/14 08:10:19;;;;;;;;;;;;;;;;;;4995286;28;20280;-66
2023/07/14 08:12:45;;;;;;;;;;;;;;;;;;4994466;28;20364;-66
2023/07/14 08:15:11;;;;;;;;;;;;;;;;;;4994581;28;19932;-66
2023/07/14 08:17:37;;;;;;;;;;;;;;;;;;4993779;28;20412;-65
2023/07/14 08:20:04;;;;;;;;;;;;;;;;;;4994820;28;19926;-66
2023/07/14 08:22:30;;;;;;;;;;;;;;;;;;4994659;28;20317;-65
2023/07/14 08:24:56;;;;;;;;;;;;;;;;;;4993063;28;19977;-66
2023/07/14 08:27:22;;;;;;;;;;;;;;;;;;4994331;28;20399;-65
2023/07/14 08:29:48;;;;;;;;;;;;;;;;;;4994388;28;19929;-66
2023/07/14 08:32:15;;;;;;;;;;;;;;;;;;4994246;28;19929;-66
2023/07/14 08:34:41;;;;;;;;;;;;;;;;;;4994017;28;19929;-66
2023/07/14 08:37:07;;;;;;;;;;;;;;;;;;4993689;28;19990;-65
2023/07/14 08:39:33;;;;;;;;;;;;;;;;;;4993810;28;19930;-66
2023/07/14 08:41:59;;;;;;;;;;;;;;;;;;4993738;28;19926;-66
2023/07/14 08:44:25;;;;;;;;;;;;;;;;;;4994288;28;19965;-65
2023/07/14 08:46:51;;;;;;;;;;;;;;;;;;4993613;28;20470;-65
2023/07/14 08:49:17;;;;;;;;;;;;;;;;;;4993931;28;20016;-65
2023/07/14 08:51:46;;;;;;;;;;;;;;;;;;4992534;28;19965;-65
2023/07/14 08:54:12;;;;;;;;;;;;;;;;;;4993790;28;19925;-65
2023/07/14 08:56:38;;;;;;;;;;;;;;;;;;4993869;28;20411;-65
2023/07/14 08:59:03;;;;;;;;;;;;;;;;;;4993759;28;19922;-66
2023/07/14 09:01:29;;;;;;;;;;;;;;;;;;4993756;28;19926;-65
2023/07/14 09:03:55;;;;;;;;;;;;;;;;;;4993805;28;19967;-65
2023/07/14 09:06:21;;;;;;;;;;;;;;;;;;4993606;28;20378;-66
2023/07/14 09:08:47;;;;;;;;;;;;;;;;;;4993626;28;19921;-65
2023/07/14 09:11:13;;;;;;;;;;;;;;;;;;4993597;28;19925;-65
2023/07/14 09:13:39;;;;;;;;;;;;;;;;;;4993428;28;19968;-65
2023/07/14 09:16:06;;;;;;;;;;;;;;;;;;4993843;28;19922;-65
2023/07/14 09:18:32;;;;;;;;;;;;;;;;;;4993330;28;20387;-65
2023/07/14 09:20:58;;;;;;;;;;;;;;;;;;4993512;28;19984;-65
2023/07/14 09:23:24;;;;;;;;;;;;;;;;;;4993203;28;19949;-65
2023/07/14 09:25:50;;;;;;;;;;;;;;;;;;4993343;28;20472;-65
2023/07/14 09:28:16;;;;;;;;;;;;;;;;;;4993339;28;19926;-65
2023/07/14 09:30:42;;;;;;;;;;;;;;;;;;4992324;28;19969;-65
2023/07/14 09:33:07;;;;;;;;;;;;;;;;;;4993431;28;19929;-65
2023/07/14 09:35:34;;;;;;;;;;;;;;;;;;4993054;28;20311;-65
2023/07/14 09:37:59;;;;;;;;;;;;;;;;;;4993081;28;19937;-65
2023/07/14 09:40:25;;;;;;;;;;;;;;;;;;4993034;28;19922;-65
2023/07/14 09:42:51;;;;;;;;;;;;;;;;;;4993064;28;19921;-65
2023/07/14 09:45:17;;;;;;;;;;;;;;;;;;4993231;28;19926;-65
2023/07/14 09:47:43;;;;;;;;;;;;;;;;;;4993182;28;19983;-65
2023/07/14 09:50:09;;;;;;;;;;;;;;;;;;4992797;28;19945;-65
2023/07/14 09:52:35;;;;;;;;;;;;;;;;;;4992930;28;20016;-65
2023/07/14 09:55:01;;;;;;;;;;;;;;;;;;4993132;28;20056;-65
2023/07/14 09:57:27;;;;;;;;;;;;;;;;;;4992845;28;20020;-65
2023/07/14 09:59:53;;;;;;;;;;;;;;;;;;4992868;28;19930;-65
2023/07/14 10:02:19;;;;;;;;;;;;;;;;;;4992779;28;20311;-65
2023/07/14 10:04:45;;;;;;;;;;;;;;;;;;4991606;28;19936;-65
2023/07/14 10:07:11;;;;;;;;;;;;;;;;;;4992651;28;20360;-65
2023/07/14 10:09:36;;;;;;;;;;;;;;;;;;4992624;28;19922;-65
2023/07/14 10:12:02;;;;;;;;;;;;;;;;;;4992519;28;19922;-65
2023/07/14 10:14:28;;;;;;;;;;;;;;;;;;4992680;28;19930;-65
2023/07/14 10:16:54;;;;;;;;;;;;;;;;;;4992596;28;20401;-65
2023/07/14 10:19:20;;;;;;;;;;;;;;;;;;4991340;28;19928;-65
2023/07/14 10:21:46;;;;;;;;;;;;;;;;;;4992020;28;19922;-65
2023/07/14 10:24:12;;;;;;;;;;;;;;;;;;4991723;28;19929;-65
2023/07/14 10:26:38;;;;;;;;;;;;;;;;;;4991833;28;19922;-65
2023/07/14 10:29:04;;;;;;;;;;;;;;;;;;4991939;28;19973;-65
2023/07/14 10:31:30;;;;;;;;;;;;;;;;;;4991597;28;19921;-65
2023/07/14 10:33:58;;;;;;;;;;;;;;;;;;4990830;28;20390;-66
2023/07/14 10:36:23;;;;;;;;;;;;;;;;;;4991411;28;19926;-65
2023/07/14 10:38:50;;;;;;;;;;;;;;;;;;4991675;28;20299;-65
2023/07/14 10:41:16;;;;;;;;;;;;;;;;;;4993355;28;20356;-65
2023/07/14 10:43:41;;;;;;;;;;;;;;;;;;4995945;28;19929;-66
2023/07/14 10:46:07;;;;;;;;;;;;;;;;;;4995597;28;19989;-65
2023/07/14 10:48:33;;;;;;;;;;;;;;;;;;4995755;28;19988;-65
2023/07/14 10:50:59;;;;;;;;;;;;;;;;;;4996033;28;19965;-65
2023/07/14 10:53:25;;;;;;;;;;;;;;;;;;4996166;28;19979;-66
2023/07/14 10:55:51;;;;;;;;;;;;;;;;;;4995880;28;19930;-65
2023/07/14 10:58:18;;;;;;;;;;;;;;;;;;4996284;28;19921;-65
2023/07/14 11:00:45;;;;;;;;;;;;;;;;;;4996017;28;19929;-65
2023/07/14 11:03:11;;;;;;;;;;;;;;;;;;4978413;28;19948;-65
2023/07/14 11:05:38;;;;;;;;;;;;;;;;;;4995874;28;20470;-65
2023/07/14 11:08:04;;;;;;;;;;;;;;;;;;4995928;28;19921;-65
2023/07/14 11:10:30;;;;;;;;;;;;;;;;;;4995673;28;20427;-65
2023/07/14 11:12:56;;;;;;;;;;;;;;;;;;4995992;28;20587;-66
2023/07/14 11:15:22;;;;;;;;;;;;;;;;;;4995745;28;19936;-65
2023/07/14 11:17:48;;;;;;;;;;;;;;;;;;4995886;28;19922;-65
2023/07/14 11:20:14;;;;;;;;;;;;;;;;;;4995709;28;20291;-65
2023/07/14 11:22:39;;;;;;;;;;;;;;;;;;4995526;28;20351;-65
2023/07/14 11:25:05;;;;;;;;;;;;;;;;;;4995503;28;19972;-65
2023/07/14 11:27:31;;;;;;;;;;;;;;;;;;4995692;28;19922;-65
2023/07/14 11:29:57;;;;;;;;;;;;;;;;;;4995725;28;20417;-65
2023/07/14 11:32:23;;;;;;;;;;;;;;;;;;4995471;28;19925;-65
2023/07/14 11:34:49;;;;;;;;;;;;;;;;;;4995351;28;20305;-65
2023/07/14 11:37:15;;;;;;;;;;;;;;;;;;4995108;28;19976;-66
2023/07/14 11:39:41;;;;;;;;;;;;;;;;;;4995289;28;20012;-65
2023/07/14 11:42:07;;;;;;;;;;;;;;;;;;4995371;28;19932;-65
2023/07/14 11:44:32;;;;;;;;;;;;;;;;;;4995488;28;20272;-66
2023/07/14 11:46:59;;;;;;;;;;;;;;;;;;4995145;28;19937;-66
2023/07/14 11:49:25;;;;;;;;;;;;;;;;;;4995163;28;19925;-65
2023/07/14 11:51:51;;;;;;;;;;;;;;;;;;4993370;28;19933;-66
2023/07/14 11:54:17;;;;;;;;;;;;;;;;;;4994457;28;19926;-66
2023/07/14 11:56:46;;;;;;;;;;;;;;;;;;4995144;28;20071;-66
2023/07/14 11:59:12;;;;;;;;;;;;;;;;;;4995213;28;19933;-65
2023/07/14 12:01:38;;;;;;;;;;;;;;;;;;4994890;28;19921;-65
2023/07/14 12:04:04;;;;;;;;;;;;;;;;;;4993524;28;19921;-66
2023/07/14 12:06:30;;;;;;;;;;;;;;;;;;4994708;28;19952;-65
2023/07/14 12:08:56;;;;;;;;;;;;;;;;;;4994770;28;20282;-65
2023/07/14 12:11:22;;;;;;;;;;;;;;;;;;4995178;28;20016;-65
2023/07/14 12:13:48;;;;;;;;;;;;;;;;;;4994646;28;19928;-65
2023/07/14 12:16:15;;;;;;;;;;;;;;;;;;4994736;28;20555;-65
2023/07/14 12:18:40;;;;;;;;;;;;;;;;;;4993319;28;19981;-65
2023/07/14 12:21:06;;;;;;;;;;;;;;;;;;4994526;28;19926;-65
2023/07/14 12:23:32;;;;;;;;;;;;;;;;;;4993185;28;19932;-65
2023/07/14 12:25:58;;;;;;;;;;;;;;;;;;4994726;28;19972;-65
2023/07/14 12:28:25;;;;;;;;;;;;;;;;;;4994522;28;19921;-65
2023/07/14 12:30:51;;;;;;;;;;;;;;;;;;4994484;28;19937;-65
2023/07/14 12:33:19;;;;;;;;;;;;;;;;;;4993784;28;20029;-65
2023/07/14 12:35:45;;;;;;;;;;;;;;;;;;4993208;28;19938;-65
2023/07/14 12:38:12;;;;;;;;;;;;;;;;;;4993468;28;19933;-66
2023/07/14 12:40:37;;;;;;;;;;;;;;;;;;4993596;28;19921;-65
2023/07/14 12:43:03;;;;;;;;;;;;;;;;;;4992074;28;19992;-65
2023/07/14 12:45:29;;;;;;;;;;;;;;;;;;4994002;28;19922;-66
2023/07/14 12:47:55;;;;;;;;;;;;;;;;;;4993964;28;19926;-66
2023/07/14 12:50:21;;;;;;;;;;;;;;;;;;4992594;28;20004;-65
2023/07/14 12:52:47;;;;;;;;;;;;;;;;;;4993671;28;19971;-65
2023/07/14 12:55:13;;;;;;;;;;;;;;;;;;4992686;28;20395;-65
2023/07/14 12:57:39;;;;;;;;;;;;;;;;;;4993770;28;19922;-65
2023/07/14 13:00:05;;;;;;;;;;;;;;;;;;4993772;28;19945;-65
2023/07/14 13:02:31;;;;;;;;;;;;;;;;;;4993628;28;20272;-65
2023/07/14 13:04:57;;;;;;;;;;;;;;;;;;4992104;28;19929;-66
2023/07/14 13:07:23;;;;;;;;;;;;;;;;;;4993629;28;19922;-65
2023/07/14 13:09:49;;;;;;;;;;;;;;;;;;4993553;28;20065;-65
2023/07/14 13:12:15;;;;;;;;;;;;;;;;;;4993412;28;20017;-65
2023/07/14 13:14:41;;;;;;;;;;;;;;;;;;4993208;28;20418;-65
2023/07/14 13:17:06;;;;;;;;;;;;;;;;;;4992041;28;19922;-65
2023/07/14 13:19:32;;;;;;;;;;;;;;;;;;4991781;28;19933;-65
2023/07/14 13:21:58;;;;;;;;;;;;;;;;;;4993307;28;19925;-66
2023/07/14 13:24:24;;;;;;;;;;;;;;;;;;4993214;28;20364;-65
2023/07/14 13:26:50;;;;;;;;;;;;;;;;;;4993383;28;19922;-65
2023/07/14 13:29:16;;;;;;;;;;;;;;;;;;4993243;28;19925;-65
2023/07/14 13:31:42;;;;;;;;;;;;;;;;;;4993163;28;19921;-65
2023/07/14 13:34:08;;;;;;;;;;;;;;;;;;4993018;28;19973;-65
2023/07/14 13:36:34;;;;;;;;;;;;;;;;;;4993154;28;19930;-65
2023/07/14 13:39:00;;;;;;;;;;;;;;;;;;4993223;28;20295;-65
2023/07/14 13:41:26;;;;;;;;;;;;;;;;;;4993231;28;19957;-65
2023/07/14 13:43:52;;;;;;;;;;;;;;;;;;4991612;28;20004;-65
2023/07/14 13:46:18;;;;;;;;;;;;;;;;;;4992865;28;19925;-65
2023/07/14 13:48:44;;;;;;;;;;;;;;;;;;4993099;28;20024;-65
2023/07/14 13:51:12;;;;;;;;;;;;;;;;;;4993067;28;19926;-65
2023/07/14 13:53:38;;;;;;;;;;;;;;;;;;4992850;28;20425;-65
2023/07/14 13:56:04;;;;;;;;;;;;;;;;;;4992818;28;19933;-65
2023/07/14 13:58:29;;;;;;;;;;;;;;;;;;4992744;28;19922;-66
2023/07/14 14:00:55;;;;;;;;;;;;;;;;;;4992766;28;20396;-65
2023/07/14 14:03:21;;;;;;;;;;;;;;;;;;4992560;28;20387;-65
2023/07/14 14:05:47;;;;;;;;;;;;;;;;;;4975192;28;20464;-65
2023/07/14 14:08:13;;;;;;;;;;;;;;;;;;4992845;28;19928;-65
2023/07/14 14:10:39;;;;;;;;;;;;;;;;;;4992694;28;19926;-65
2023/07/14 14:13:05;;;;;;;;;;;;;;;;;;4992671;28;19926;-65
2023/07/14 14:15:32;;;;;;;;;;;;;;;;;;4990440;28;19948;-65
2023/07/14 14:17:58;;;;;;;;;;;;;;;;;;4992278;28;20004;-65
2023/07/14 14:20:24;;;;;;;;;;;;;;;;;;4990914;28;20008;-65
2023/07/14 14:22:52;;;;;;;;;;;;;;;;;;4992600;28;19926;-65
2023/07/14 14:25:18;;;;;;;;;;;;;;;;;;4992435;28;19949;-65
2023/07/14 14:27:44;;;;;;;;;;;;;;;;;;4991132;28;20379;-65
2023/07/14 14:30:10;;;;;;;;;;;;;;;;;;4992343;28;19957;-65
2023/07/14 14:32:37;;;;;;;;;;;;;;;;;;4992360;28;19922;-65
2023/07/14 14:35:03;;;;;;;;;;;;;;;;;;4992539;28;19952;-65
2023/07/14 14:37:28;;;;;;;;;;;;;;;;;;4992237;28;20500;-66
2023/07/14 14:39:55;;;;;;;;;;;;;;;;;;4991681;28;19980;-66
2023/07/14 14:42:21;;;;;;;;;;;;;;;;;;4991633;28;19926;-65
2023/07/14 14:44:47;;;;;;;;;;;;;;;;;;4991573;28;19928;-65
2023/07/14 14:47:13;;;;;;;;;;;;;;;;;;4992109;28;20391;-65
2023/07/14 14:49:39;;;;;;;;;;;;;;;;;;4992230;28;19930;-65
2023/07/14 14:52:05;;;;;;;;;;;;;;;;;;4992315;28;19926;-65
2023/07/14 14:54:31;;;;;;;;;;;;;;;;;;4990847;28;19925;-65
2023/07/14 14:56:59;;;;;;;;;;;;;;;;;;4992250;28;19977;-65
2023/07/14 14:59:25;;;;;;;;;;;;;;;;;;4992120;28;19984;-65
2023/07/14 15:01:51;;;;;;;;;;;;;;;;;;4992172;28;20384;-65
2023/07/14 15:04:17;;;;;;;;;;;;;;;;;;4992333;28;19926;-65
2023/07/14 15:06:43;;;;;;;;;;;;;;;;;;4992206;28;19925;-65
2023/07/14 15:09:09;;;;;;;;;;;;;;;;;;4992143;28;19936;-65
2023/07/14 15:11:35;;;;;;;;;;;;;;;;;;4991925;28;19930;-65
2023/07/14 15:14:01;;;;;;;;;;;;;;;;;;4991886;28;19922;-65
2023/07/14 15:16:28;;;;;;;;;;;;;;;;;;4991748;28;20030;-65
2023/07/14 15:18:54;;;;;;;;;;;;;;;;;;4992186;28;19991;-65
2023/07/14 15:21:20;;;;;;;;;;;;;;;;;;4991960;28;20015;-65
2023/07/14 15:23:46;;;;;;;;;;;;;;;;;;4992048;28;19963;-65
2023/07/14 15:26:11;;;;;;;;;;;;;;;;;;4991890;28;19926;-65
2023/07/14 15:28:37;;;;;;;;;;;;;;;;;;4995557;28;19933;-65
2023/07/14 15:31:03;;;;;;;;;;;;;;;;;;4995428;28;19936;-65
2023/07/14 15:33:29;;;;;;;;;;;;;;;;;;4995637;28;19922;-65
2023/07/14 15:35:55;;;;;;;;;;;;;;;;;;4995412;28;19933;-65
2023/07/14 15:38:21;;;;;;;;;;;;;;;;;;4995126;28;19925;-65
2023/07/14 15:40:47;;;;;;;;;;;;;;;;;;4995086;28;19922;-65
2023/07/14 15:43:13;;;;;;;;;;;;;;;;;;4993886;28;19968;-65
2023/07/14 15:45:39;;;;;;;;;;;;;;;;;;4993714;28;19926;-65
2023/07/14 15:48:05;;;;;;;;;;;;;;;;;;4995168;28;20284;-65
2023/07/14 15:50:31;;;;;;;;;;;;;;;;;;4995283;28;19922;-65
2023/07/14 15:52:57;;;;;;;;;;;;;;;;;;4995130;28;19972;-65
2023/07/14 15:55:23;;;;;;;;;;;;;;;;;;4994839;28;20281;-65
2023/07/14 15:57:49;;;;;;;;;;;;;;;;;;4995069;28;19976;-65
2023/07/14 16:00:15;;;;;;;;;;;;;;;;;;4995077;28;20276;-65
2023/07/14 16:02:41;;;;;;;;;;;;;;;;;;4995051;28;19932;-65
2023/07/14 16:05:07;;;;;;;;;;;;;;;;;;4994785;28;19926;-65
2023/07/14 16:07:33;;;;;;;;;;;;;;;;;;4994776;28;19932;-65
2023/07/14 16:10:01;;;;;;;;;;;;;;;;;;4994654;28;20383;-65
2023/07/14 16:12:27;;;;;;;;;;;;;;;;;;4993237;28;20000;-65
2023/07/14 16:14:53;;;;;;;;;;;;;;;;;;4993184;28;20355;-65
2023/07/14 16:17:19;;;;;;;;;;;;;;;;;;4994323;28;19926;-65
2023/07/14 16:19:45;;;;;;;;;;;;;;;;;;4993787;28;19979;-65
2023/07/14 16:22:11;;;;;;;;;;;;;;;;;;4993719;28;19922;-65
2023/07/14 16:24:37;;;;;;;;;;;;;;;;;;4994083;28;19995;-65
2023/07/14 16:27:03;;;;;;;;;;;;;;;;;;4993384;28;19973;-65
2023/07/14 16:29:29;;;;;;;;;;;;;;;;;;4993689;28;19926;-66
2023/07/14 16:31:55;;;;;;;;;;;;;;;;;;4993511;28;20516;-65
2023/07/14 16:34:21;;;;;;;;;;;;;;;;;;4993401;28;19957;-66
2023/07/14 16:36:47;;;;;;;;;;;;;;;;;;4993040;28;20014;-65